Time;durP1;ratioP1;P1;durP2;ratioP2;P2;SDS_P1;SDS_P2;PMS_P1;PMS_P2;Temp;Humidity;BMP_temperature;BMP_pressure;BME280_temperature;BME280_humidity;BME280_pressure;Samples;Min_cycle;Max_cycle;Signal;HPM_P1;HPM_P2
2021/10/17 00:00:19;;;;;;;10.57;4.82;;;10.90;92.90;;;;;;4790813;29;20076;-85
2021/10/17 00:02:46;;;;;;;13.23;5.45;;;11.00;92.90;;;;;;4789574;29;20062;-84
2021/10/17 00:05:12;;;;;;;13.52;5.25;;;10.90;92.40;;;;;;4790628;29;20128;-85
2021/10/17 00:07:38;;;;;;;11.02;5.40;;;10.90;92.20;;;;;;4790070;29;20047;-84
2021/10/17 00:10:10;;;;;;;12.60;5.28;;;10.90;92.50;;;;;;4790379;29;20388;-85
2021/10/17 00:12:36;;;;;;;11.45;4.80;;;10.90;92.50;;;;;;4790006;29;20121;-84
2021/10/17 00:15:04;;;;;;;12.25;4.95;;;10.90;92.60;;;;;;4790424;29;20063;-85
2021/10/17 00:17:30;;;;;;;11.88;4.65;;;10.90;92.50;;;;;;4789208;29;20484;-84
2021/10/17 00:19:55;;;;;;;13.85;4.95;;;10.90;92.30;;;;;;4790467;29;20056;-84
2021/10/17 00:22:21;;;;;;;11.05;4.85;;;10.80;92.10;;;;;;4789599;29;20042;-84
2021/10/17 00:24:46;;;;;;;11.02;4.70;;;10.90;92.40;;;;;;4789429;29;20141;-85
2021/10/17 00:27:12;;;;;;;12.23;4.90;;;10.80;92.40;;;;;;4790131;29;20054;-85
2021/10/17 00:29:38;;;;;;;12.00;4.63;;;10.80;92.60;;;;;;4789026;29;20049;-84
2021/10/17 00:32:04;;;;;;;9.93;4.70;;;10.80;92.80;;;;;;4789286;29;20463;-85
2021/10/17 00:34:30;;;;;;;15.10;5.28;;;10.80;92.70;;;;;;4789829;29;20150;-86
2021/10/17 00:36:55;;;;;;;13.23;5.15;;;10.80;92.70;;;;;;4788902;29;20070;-85
2021/10/17 00:39:21;;;;;;;11.52;4.82;;;10.80;92.60;;;;;;4795802;29;20042;-84
2021/10/17 00:41:47;;;;;;;9.05;4.70;;;10.70;92.60;;;;;;4796075;29;20047;-85
2021/10/17 00:44:20;;;;;;;9.95;4.82;;;10.70;92.90;;;;;;4795315;29;20046;-84
2021/10/17 00:46:46;;;;;;;;;;;10.70;92.80;;;;;;4795430;29;20043;-84
2021/10/17 00:49:11;;;;;;;12.68;4.43;;;10.60;92.20;;;;;;4796276;29;19925;-85
2021/10/17 00:51:37;;;;;;;10.55;4.65;;;10.60;92.70;;;;;;4794847;29;21998;-85
2021/10/17 00:54:02;;;;;;;13.30;4.50;;;10.60;92.70;;;;;;4796489;29;20111;-85
2021/10/17 00:56:28;;;;;;;10.65;4.90;;;10.60;92.70;;;;;;4795712;29;20047;-84
2021/10/17 00:58:53;;;;;;;12.00;4.60;;;10.60;93.20;;;;;;4794919;29;20078;-85
2021/10/17 01:01:19;;;;;;;9.95;4.25;;;10.60;93.00;;;;;;4795852;29;20042;-84
2021/10/17 01:03:45;;;;;;;12.15;4.70;;;10.50;92.90;;;;;;4795217;29;20573;-85
2021/10/17 01:06:13;;;;;;;10.43;4.68;;;10.60;92.90;;;;;;4795170;29;20469;-84
2021/10/17 01:08:39;;;;;;;12.93;4.28;;;10.50;93.00;;;;;;4795023;29;20062;-84
2021/10/17 01:11:06;;;;;;;12.30;4.63;;;10.50;92.80;;;;;;4796125;29;20047;-84
2021/10/17 01:13:31;;;;;;;13.80;4.47;;;10.50;92.70;;;;;;4794307;29;20415;-85
2021/10/17 01:15:57;;;;;;;11.00;4.05;;;10.50;92.50;;;;;;4796124;29;20051;-85
2021/10/17 01:18:26;;;;;;;11.40;4.38;;;10.50;92.50;;;;;;4795360;29;20053;-84
2021/10/17 01:20:53;;;;;;;10.05;4.28;;;10.50;92.60;;;;;;4795546;29;20066;-84
2021/10/17 01:23:19;;;;;;;16.35;5.00;;;10.40;92.60;;;;;;4795669;29;20038;-84
2021/10/17 01:25:48;;;;;;;10.20;4.32;;;10.50;92.60;;;;;;4783890;29;20081;-84
2021/10/17 01:28:17;;;;;;;11.23;4.93;;;10.50;92.60;;;;;;4794318;29;20039;-85
2021/10/17 01:30:43;;;;;;;13.93;4.88;;;10.40;92.70;;;;;;4795227;29;20050;-84
2021/10/17 01:33:08;;;;;;;14.32;5.15;;;10.40;92.70;;;;;;4794327;29;20049;-84
2021/10/17 01:35:34;;;;;;;12.05;4.78;;;10.50;92.70;;;;;;4795854;29;20059;-84
2021/10/17 01:38:00;;;;;;;12.43;5.13;;;10.40;92.80;;;;;;4810427;29;20054;-84
2021/10/17 01:40:26;;;;;;;16.65;5.32;;;10.50;92.90;;;;;;4795384;29;20065;-84
2021/10/17 01:42:51;;;;;;;12.05;5.05;;;10.50;92.90;;;;;;4795720;29;20133;-84
2021/10/17 01:45:17;;;;;;;14.23;5.40;;;10.50;93.00;;;;;;4795677;29;20416;-84
2021/10/17 01:47:51;;;;;;;14.82;5.88;;;10.50;93.00;;;;;;4794103;29;20082;-84
2021/10/17 01:50:18;;;;;;;13.65;5.40;;;10.50;93.10;;;;;;4792419;29;20061;-85
2021/10/17 01:52:45;;;;;;;13.50;5.80;;;10.50;93.20;;;;;;4792415;29;20057;-85
2021/10/17 01:55:10;;;;;;;13.95;5.55;;;10.50;93.20;;;;;;4792656;29;20116;-84
2021/10/17 01:57:37;;;;;;;13.35;5.85;;;10.50;93.30;;;;;;4792418;29;20504;-84
2021/10/17 02:00:04;;;;;;;12.60;6.35;;;10.50;93.30;;;;;;4792779;29;20047;-85
2021/10/17 02:02:30;;;;;;;14.35;5.90;;;10.50;93.50;;;;;;4791170;29;20050;-84
2021/10/17 02:04:55;;;;;;;14.23;7.03;;;10.50;93.50;;;;;;4791769;29;20043;-85
2021/10/17 02:07:21;;;;;;;14.00;6.45;;;10.50;93.60;;;;;;4792815;29;20046;-85
2021/10/17 02:09:47;;;;;;;14.68;6.82;;;10.50;93.60;;;;;;4791636;29;20145;-85
2021/10/17 02:12:14;;;;;;;17.83;7.75;;;10.50;93.70;;;;;;4792935;29;20047;-85
2021/10/17 02:14:40;;;;;;;15.43;6.82;;;10.50;93.90;;;;;;4792058;29;20059;-85
2021/10/17 02:17:06;;;;;;;20.00;7.45;;;10.50;94.00;;;;;;4791845;29;20396;-85
2021/10/17 02:19:32;;;;;;;13.50;7.03;;;10.50;94.00;;;;;;4792184;29;20058;-85
2021/10/17 02:21:57;;;;;;;16.50;6.53;;;10.40;93.90;;;;;;4791962;29;20054;-84
2021/10/17 02:24:23;;;;;;;18.60;6.80;;;10.50;93.90;;;;;;4791718;29;20079;-84
2021/10/17 02:26:49;;;;;;;14.77;6.10;;;10.40;93.90;;;;;;4791788;29;20129;-84
2021/10/17 02:29:15;;;;;;;14.07;6.13;;;10.50;94.00;;;;;;4791963;29;20131;-84
2021/10/17 02:31:40;;;;;;;14.68;5.78;;;10.40;93.90;;;;;;4791172;29;20050;-84
2021/10/17 02:34:06;;;;;;;15.10;6.30;;;10.40;93.90;;;;;;4791896;29;20051;-85
2021/10/17 02:36:32;;;;;;;13.02;5.85;;;10.40;93.90;;;;;;4791271;29;20417;-85
2021/10/17 02:38:57;;;;;;;13.02;6.35;;;10.40;93.90;;;;;;4791950;29;20145;-84
2021/10/17 02:41:23;;;;;;;14.88;6.00;;;10.40;93.90;;;;;;4791950;29;20446;-84
2021/10/17 02:43:48;;;;;;;13.30;5.80;;;10.40;93.90;;;;;;4790918;29;20051;-84
2021/10/17 02:46:14;;;;;;;13.63;6.10;;;10.40;94.00;;;;;;4792286;29;20466;-85
2021/10/17 02:48:40;;;;;;;13.63;6.07;;;10.40;94.00;;;;;;4791257;29;20050;-85
2021/10/17 02:51:05;;;;;;;11.13;5.78;;;10.40;94.00;;;;;;4791218;29;20051;-85
2021/10/17 02:53:31;;;;;;;9.98;5.63;;;10.40;94.00;;;;;;4791187;29;20134;-84
2021/10/17 02:55:57;;;;;;;11.55;5.60;;;10.40;94.10;;;;;;4791908;29;20138;-84
2021/10/17 02:58:22;;;;;;;10.48;5.32;;;10.40;94.10;;;;;;4790594;29;20389;-85
2021/10/17 03:00:48;;;;;;;13.70;5.97;;;10.40;94.00;;;;;;4791480;29;20515;-85
2021/10/17 03:03:13;;;;;;;15.85;5.95;;;10.40;94.00;;;;;;4791666;29;20050;-84
2021/10/17 03:05:39;;;;;;;14.07;5.97;;;10.30;93.90;;;;;;4790281;29;20131;-85
2021/10/17 03:08:05;;;;;;;14.90;5.78;;;10.30;93.90;;;;;;4791405;29;20147;-85
2021/10/17 03:10:31;;;;;;;12.60;5.72;;;10.30;93.80;;;;;;4791489;29;20050;-84
2021/10/17 03:12:57;;;;;;;15.40;6.22;;;10.30;93.80;;;;;;4790688;29;20058;-84
2021/10/17 03:15:22;;;;;;;16.83;5.75;;;10.30;93.90;;;;;;4791395;29;20051;-85
2021/10/17 03:17:48;;;;;;;13.73;4.82;;;10.30;93.80;;;;;;4790689;29;20055;-84
2021/10/17 03:20:14;;;;;;;14.05;5.70;;;10.30;93.70;;;;;;4790653;29;20053;-85
2021/10/17 03:22:40;;;;;;;12.93;5.35;;;10.30;93.70;;;;;;4791145;29;20108;-85
2021/10/17 03:25:06;;;;;;;12.48;5.90;;;10.30;93.70;;;;;;4790985;29;20039;-85
2021/10/17 03:27:32;;;;;;;14.55;5.63;;;10.30;93.60;;;;;;4790291;29;20055;-85
2021/10/17 03:29:57;;;;;;;14.65;5.80;;;10.30;93.60;;;;;;4789051;29;20400;-85
2021/10/17 03:32:26;;;;;;;10.90;5.50;;;10.30;93.80;;;;;;4790849;29;20416;-86
2021/10/17 03:34:52;;;;;;;10.68;5.20;;;10.30;93.70;;;;;;4789860;29;20458;-85
2021/10/17 03:37:17;;;;;;;17.58;6.18;;;10.30;93.70;;;;;;4791041;29;20072;-85
2021/10/17 03:39:43;;;;;;;13.73;5.93;;;10.30;93.60;;;;;;4789462;29;20495;-86
2021/10/17 03:42:08;;;;;;;15.05;5.55;;;10.30;93.60;;;;;;4791154;29;20102;-85
2021/10/17 03:44:34;;;;;;;13.38;5.68;;;10.30;93.70;;;;;;4790545;29;20085;-84
2021/10/17 03:46:59;;;;;;;13.65;6.32;;;10.30;93.60;;;;;;4789930;29;20039;-86
2021/10/17 03:49:25;;;;;;;14.02;5.63;;;10.30;93.70;;;;;;4790381;29;20047;-85
2021/10/17 03:51:51;;;;;;;11.68;5.75;;;10.20;93.70;;;;;;4790150;29;20078;-85
2021/10/17 03:54:16;;;;;;;11.32;5.13;;;10.30;93.70;;;;;;4789875;29;20051;-86
2021/10/17 03:56:42;;;;;;;11.85;5.45;;;10.30;93.70;;;;;;4790345;29;20079;-85
2021/10/17 03:59:07;;;;;;;12.07;5.20;;;10.30;93.80;;;;;;4790656;29;20141;-86
2021/10/17 04:01:33;;;;;;;13.68;5.72;;;10.20;93.80;;;;;;4789797;29;20140;-85
2021/10/17 04:03:58;;;;;;;15.43;6.13;;;10.30;93.80;;;;;;4790514;29;20140;-85
2021/10/17 04:06:24;;;;;;;17.48;6.07;;;10.20;93.70;;;;;;4790845;29;20051;-85
2021/10/17 04:08:49;;;;;;;13.82;6.03;;;10.20;93.70;;;;;;4789491;29;20499;-85
2021/10/17 04:11:15;;;;;;;13.50;5.32;;;10.20;93.60;;;;;;4790130;29;20058;-86
2021/10/17 04:13:40;;;;;;;12.52;5.55;;;10.20;93.70;;;;;;4789492;29;20137;-85
2021/10/17 04:16:07;;;;;;;11.10;5.30;;;10.20;93.80;;;;;;4789838;29;20103;-85
2021/10/17 04:18:32;;;;;;;14.35;5.63;;;10.20;93.90;;;;;;4789347;29;20125;-84
2021/10/17 04:20:58;;;;;;;12.20;5.20;;;10.20;93.80;;;;;;4790103;29;20130;-85
2021/10/17 04:23:25;;;;;;;14.60;5.72;;;10.20;93.80;;;;;;4789087;29;20039;-85
2021/10/17 04:25:51;;;;;;;14.80;5.70;;;10.20;93.70;;;;;;4789609;29;20133;-85
2021/10/17 04:28:16;;;;;;;11.45;5.20;;;10.20;93.70;;;;;;4790227;29;20133;-85
2021/10/17 04:30:42;;;;;;;13.27;5.47;;;10.20;93.70;;;;;;4789337;29;20049;-85
2021/10/17 04:33:08;;;;;;;12.95;6.00;;;10.20;93.60;;;;;;4789421;29;20054;-85
2021/10/17 04:35:37;;;;;;;14.77;5.80;;;10.20;93.60;;;;;;4789628;29;20054;-85
2021/10/17 04:38:05;;;;;;;11.10;5.35;;;10.20;93.60;;;;;;4789247;29;20111;-85
2021/10/17 04:40:31;;;;;;;13.18;5.30;;;10.20;93.70;;;;;;4789769;29;20134;-86
2021/10/17 04:42:57;;;;;;;8.05;5.13;;;10.20;93.70;;;;;;4789368;29;20050;-85
2021/10/17 04:45:23;;;;;;;11.77;5.20;;;10.20;93.70;;;;;;4789640;29;20047;-85
2021/10/17 04:47:48;;;;;;;9.77;4.88;;;10.20;93.60;;;;;;4789730;29;20043;-85
2021/10/17 04:50:14;;;;;;;13.88;5.28;;;10.20;93.70;;;;;;4789116;29;20051;-86
2021/10/17 04:52:39;;;;;;;10.48;5.18;;;10.20;93.70;;;;;;4790383;29;20047;-86
2021/10/17 04:55:08;;;;;;;12.02;5.15;;;10.20;93.90;;;;;;4789833;29;20039;-85
2021/10/17 04:57:34;;;;;;;12.45;5.72;;;10.20;94.00;;;;;;4788692;29;20050;-85
2021/10/17 05:00:00;;;;;;;10.20;5.03;;;10.20;93.90;;;;;;4789393;29;20411;-85
2021/10/17 05:02:26;;;;;;;12.93;5.40;;;10.20;93.90;;;;;;4789665;29;20122;-85
2021/10/17 05:04:52;;;;;;;14.82;5.22;;;10.20;93.70;;;;;;4789078;29;20130;-85
2021/10/17 05:07:17;;;;;;;11.60;5.20;;;10.30;93.70;;;;;;4790349;29;20047;-85
2021/10/17 05:09:43;;;;;;;11.07;5.10;;;10.30;93.80;;;;;;4789984;29;20157;-86
2021/10/17 05:12:09;;;;;;;14.95;5.30;;;10.30;93.80;;;;;;4789224;29;20054;-86
2021/10/17 05:14:34;;;;;;;11.85;5.00;;;10.30;93.60;;;;;;4789739;29;20091;-85
2021/10/17 05:17:00;;;;;;;10.45;4.93;;;10.30;93.60;;;;;;4789423;29;20080;-85
2021/10/17 05:19:25;;;;;;;14.95;5.90;;;10.30;93.60;;;;;;4789187;29;20097;-85
2021/10/17 05:21:51;;;;;;;11.80;5.30;;;10.30;93.50;;;;;;4789270;29;20070;-86
2021/10/17 05:24:16;;;;;;;12.25;5.03;;;10.30;93.50;;;;;;4790853;29;20408;-85
2021/10/17 05:26:42;;;;;;;10.77;5.03;;;10.20;93.60;;;;;;4792317;29;20427;-85
2021/10/17 05:29:07;;;;;;;8.80;5.20;;;10.30;93.70;;;;;;4792805;29;20054;-86
2021/10/17 05:31:34;;;;;;;10.10;4.88;;;10.30;93.70;;;;;;4792580;29;20478;-85
2021/10/17 05:34:00;;;;;;;15.40;5.57;;;10.30;93.60;;;;;;4792108;29;20065;-86
2021/10/17 05:36:25;;;;;;;11.27;5.10;;;10.30;93.60;;;;;;4807919;29;20055;-85
2021/10/17 05:38:51;;;;;;;15.20;5.70;;;10.30;93.90;;;;;;4792700;29;20050;-86
2021/10/17 05:41:17;;;;;;;11.65;5.38;;;10.20;93.40;;;;;;4792133;29;20496;-85
2021/10/17 05:43:42;;;;;;;15.35;5.68;;;10.20;93.40;;;;;;4793020;29;20434;-86
2021/10/17 05:46:08;;;;;;;12.68;5.22;;;10.20;93.50;;;;;;4793710;29;20063;-86
2021/10/17 05:48:33;;;;;;;14.52;5.20;;;10.20;93.40;;;;;;4791862;29;20510;-86
2021/10/17 05:50:59;;;;;;;12.48;5.78;;;10.20;93.40;;;;;;4792287;29;20477;-85
2021/10/17 05:53:25;;;;;;;11.45;5.07;;;10.20;93.40;;;;;;4792274;29;20416;-86
2021/10/17 05:55:50;;;;;;;12.15;5.90;;;10.20;93.40;;;;;;4792702;29;20043;-85
2021/10/17 05:58:16;;;;;;;13.15;6.20;;;10.20;93.50;;;;;;4793095;29;20138;-85
2021/10/17 06:00:41;;;;;;;14.48;5.53;;;10.20;93.40;;;;;;4790771;29;20043;-86
2021/10/17 06:03:08;;;;;;;12.57;5.47;;;10.20;93.40;;;;;;4793205;29;20050;-85
2021/10/17 06:05:33;;;;;;;16.52;6.03;;;10.20;93.50;;;;;;4791827;29;20538;-85
2021/10/17 06:08:00;;;;;;;12.98;5.70;;;10.20;93.40;;;;;;4792031;29;20097;-85
2021/10/17 06:10:26;;;;;;;12.60;5.82;;;10.10;93.30;;;;;;4791873;29;20050;-85
2021/10/17 06:12:51;;;;;;;13.85;5.68;;;10.10;93.40;;;;;;4792693;29;20045;-85
2021/10/17 06:15:17;;;;;;;16.10;6.25;;;10.10;93.30;;;;;;4807735;29;20529;-84
2021/10/17 06:17:43;;;;;;;18.40;6.03;;;10.10;93.40;;;;;;4792166;29;20042;-85
2021/10/17 06:20:09;;;;;;;12.13;6.00;;;10.10;93.80;;;;;;4791637;29;20142;-84
2021/10/17 06:22:34;;;;;;;11.23;5.43;;;10.10;93.50;;;;;;4790900;29;20068;-85
2021/10/17 06:25:00;;;;;;;12.18;5.57;;;10.10;93.60;;;;;;4791390;29;20043;-85
2021/10/17 06:27:29;;;;;;;13.60;6.30;;;10.10;93.60;;;;;;4791839;29;20047;-86
2021/10/17 06:29:54;;;;;;;12.70;5.22;;;10.10;93.50;;;;;;4791899;29;20133;-85
2021/10/17 06:32:20;;;;;;;11.73;5.72;;;10.10;93.60;;;;;;4792070;29;20482;-85
2021/10/17 06:34:45;;;;;;;12.70;5.53;;;10.10;93.70;;;;;;4791032;29;20069;-85
2021/10/17 06:37:11;;;;;;;13.50;6.03;;;10.00;93.70;;;;;;4789999;29;20134;-87
2021/10/17 06:39:37;;;;;;;15.05;6.40;;;10.00;93.60;;;;;;4791764;29;20404;-86
2021/10/17 06:42:03;;;;;;;11.88;5.60;;;10.10;93.60;;;;;;4792280;29;20397;-81
2021/10/17 06:44:36;;;;;;;18.17;6.05;;;10.00;93.60;;;;;;4791040;29;20130;-89
2021/10/17 06:47:02;;;;;;;14.73;6.50;;;10.10;93.50;;;;;;4792963;29;20082;-89
2021/10/17 06:49:30;;;;;;;15.32;6.00;;;10.00;93.50;;;;;;4792381;29;20125;-91
2021/10/17 06:52:15;;;;;;;14.55;6.47;;;10.10;93.60;;;;;;4781745;29;20054;-93
2021/10/17 06:54:55;;;;;;;12.35;5.47;;;10.00;93.70;;;;;;4791125;29;20047;-85
2021/10/17 06:57:21;;;;;;;13.70;5.88;;;10.00;93.70;;;;;;4791261;29;20054;-89
2021/10/17 06:59:47;;;;;;;11.25;5.78;;;10.10;93.60;;;;;;4792164;29;20513;-89
2021/10/17 07:02:12;;;;;;;14.65;5.95;;;10.00;93.50;;;;;;4791145;29;20051;-88
2021/10/17 07:04:53;;;;;;;11.40;5.38;;;10.10;93.60;;;;;;4790959;29;20058;-87
2021/10/17 07:07:35;;;;;;;14.75;5.38;;;10.10;93.60;;;;;;4791519;29;20059;-86
2021/10/17 07:10:07;;;;;;;12.38;5.60;;;10.10;93.50;;;;;;4791587;29;20047;-86
2021/10/17 07:12:35;;;;;;;15.57;5.97;;;10.10;93.60;;;;;;4789821;29;20099;-85
2021/10/17 07:15:04;;;;;;;13.55;5.93;;;10.10;93.60;;;;;;4791583;29;20058;-86
2021/10/17 07:17:41;;;;;;;15.82;5.82;;;10.10;93.60;;;;;;4790463;29;20054;-86
2021/10/17 07:20:07;;;;;;;11.82;5.28;;;10.10;93.50;;;;;;4773286;29;20047;-85
2021/10/17 07:22:36;;;;;;;15.95;6.35;;;10.10;93.50;;;;;;4782251;29;20054;-85
2021/10/17 07:25:01;;;;;;;15.32;6.63;;;10.10;93.50;;;;;;4789782;29;20854;-87
2021/10/17 07:27:27;;;;;;;15.57;6.10;;;10.10;93.40;;;;;;4791748;29;20216;-87
2021/10/17 07:29:52;;;;;;;17.58;6.20;;;10.10;93.40;;;;;;4791390;29;20062;-84
2021/10/17 07:32:21;;;;;;;11.35;6.15;;;10.10;93.30;;;;;;4790154;29;20045;-87
2021/10/17 07:34:47;;;;;;;15.65;5.78;;;10.10;93.40;;;;;;4791117;29;20629;-86
2021/10/17 07:37:12;;;;;;;16.70;6.25;;;10.10;93.50;;;;;;4790203;29;20145;-86
2021/10/17 07:39:38;;;;;;;17.23;6.20;;;10.10;93.40;;;;;;4790005;29;20047;-87
2021/10/17 07:42:04;;;;;;;15.02;6.30;;;10.10;93.40;;;;;;4790753;29;20051;-86
2021/10/17 07:44:29;;;;;;;16.48;6.53;;;10.10;93.30;;;;;;4790399;29;20399;-86
2021/10/17 07:46:55;;;;;;;15.27;6.10;;;10.10;93.30;;;;;;4789968;29;20042;-86
2021/10/17 07:49:21;;;;;;;15.60;6.18;;;10.10;93.30;;;;;;4817053;24;20058;-86
2021/10/17 07:51:46;;;;;;;19.92;6.57;;;10.10;93.30;;;;;;4808024;29;20055;-86
2021/10/17 07:54:12;;;;;;;19.15;6.80;;;10.10;93.20;;;;;;4808461;29;20500;-86
2021/10/17 07:56:37;;;;;;;15.73;6.43;;;10.10;93.20;;;;;;4808917;29;20495;-87
2021/10/17 07:59:03;;;;;;;13.80;5.75;;;10.10;93.30;;;;;;4808275;29;20519;-85
2021/10/17 08:01:29;;;;;;;14.05;5.43;;;10.20;93.30;;;;;;4807894;29;20484;-86
2021/10/17 08:03:55;;;;;;;20.63;6.85;;;10.20;93.20;;;;;;4808810;29;20054;-87
2021/10/17 08:06:20;;;;;;;16.20;6.35;;;10.20;93.20;;;;;;4809366;29;20133;-86
2021/10/17 08:08:48;;;;;;;16.45;6.15;;;10.20;93.10;;;;;;4793720;29;20567;-87
2021/10/17 08:11:16;;;;;;;14.45;6.47;;;10.20;93.20;;;;;;4792101;29;20141;-86
2021/10/17 08:13:42;;;;;;;13.60;6.35;;;10.20;93.30;;;;;;4791887;29;20592;-86
2021/10/17 08:16:07;;;;;;;15.07;7.22;;;10.20;93.30;;;;;;4799795;29;20046;-86
2021/10/17 08:18:33;;;;;;;13.63;6.10;;;10.20;93.20;;;;;;4791575;29;20051;-85
2021/10/17 08:20:59;;;;;;;13.20;6.13;;;10.30;93.20;;;;;;4809353;29;20042;-86
2021/10/17 08:23:24;;;;;;;15.38;6.95;;;10.30;93.20;;;;;;4809921;29;20054;-86
2021/10/17 08:25:50;;;;;;;17.02;7.03;;;10.30;93.10;;;;;;4804055;29;20045;-86
2021/10/17 08:28:15;;;;;;;18.58;6.95;;;10.30;93.00;;;;;;4791008;29;20147;-86
2021/10/17 08:30:44;;;;;;;15.52;5.95;;;10.40;93.00;;;;;;4791479;29;20049;-86
2021/10/17 08:33:10;;;;;;;16.08;6.60;;;10.40;93.00;;;;;;4792580;29;20062;-86
2021/10/17 08:35:35;;;;;;;18.77;7.95;;;10.40;92.90;;;;;;4808245;29;20046;-87
2021/10/17 08:38:01;;;;;;;17.45;7.03;;;10.40;92.90;;;;;;4801726;29;20108;-85
2021/10/17 08:40:26;;;;;;;13.98;6.05;;;10.40;93.00;;;;;;4790783;29;20092;-85
2021/10/17 08:42:52;;;;;;;14.07;6.00;;;10.40;93.10;;;;;;4791034;29;20051;-88
2021/10/17 08:45:17;;;;;;;15.38;6.65;;;10.50;93.10;;;;;;4806293;29;20051;-87
2021/10/17 08:47:45;;;;;;;16.35;7.05;;;10.50;93.10;;;;;;4808764;29;20083;-86
2021/10/17 08:50:11;;;;;;;15.65;6.80;;;10.50;93.10;;;;;;4808199;29;20070;-87
2021/10/17 08:52:37;;;;;;;14.60;6.72;;;10.50;93.00;;;;;;4808814;29;20404;-86
2021/10/17 08:55:03;;;;;;;14.05;6.60;;;10.50;93.00;;;;;;4804782;29;20051;-86
2021/10/17 08:57:29;;;;;;;15.88;6.60;;;10.60;93.00;;;;;;4808494;29;20506;-85
2021/10/17 08:59:56;;;;;;;18.58;7.22;;;10.60;92.80;;;;;;4824182;29;20043;-86
2021/10/17 09:02:25;;;;;;;15.85;6.25;;;10.60;92.70;;;;;;4794879;29;20050;-86
2021/10/17 09:05:07;;;;;;;14.15;6.22;;;10.60;92.60;;;;;;4793544;29;20519;-86
2021/10/17 09:07:33;;;;;;;21.10;7.10;;;10.60;92.60;;;;;;4809267;29;20080;-86
2021/10/17 09:10:14;;;;;;;20.63;6.93;;;10.60;92.50;;;;;;4794638;29;20043;-86
2021/10/17 09:12:42;;;;;;;16.63;6.57;;;10.70;92.50;;;;;;4797157;29;20051;-84
2021/10/17 09:15:20;;;;;;;14.02;6.50;;;10.70;92.50;;;;;;4794554;29;20046;-84
2021/10/17 09:18:18;;;;;;;17.80;6.78;;;10.70;92.40;;;;;;4801981;29;20062;-85
2021/10/17 09:20:47;;;;;;;15.57;6.75;;;10.70;92.30;;;;;;4799012;29;20050;-85
2021/10/17 09:23:31;;;;;;;14.52;6.63;;;10.70;92.50;;;;;;4810155;29;20047;-85
2021/10/17 09:25:58;;;;;;;15.75;7.40;;;10.80;92.60;;;;;;4805840;29;20062;-85
2021/10/17 09:28:29;;;;;;;17.92;7.13;;;10.80;92.50;;;;;;4802455;29;20054;-85
2021/10/17 09:31:06;;;;;;;14.40;7.13;;;10.80;92.40;;;;;;4813220;29;20050;-86
2021/10/17 09:33:39;;;;;;;15.00;7.60;;;10.80;92.40;;;;;;4801986;29;20054;-85
2021/10/17 09:36:19;;;;;;;15.30;7.70;;;10.80;92.50;;;;;;4828419;29;20043;-86
2021/10/17 09:38:47;;;;;;;17.70;6.97;;;10.90;92.40;;;;;;4822777;29;20050;-86
2021/10/17 09:41:19;;;;;;;14.88;6.95;;;10.90;92.50;;;;;;4794609;29;20057;-86
2021/10/17 09:43:53;;;;;;;12.85;6.32;;;10.90;92.40;;;;;;4794886;29;20038;-86
2021/10/17 09:46:19;;;;;;;15.30;6.47;;;10.90;92.60;;;;;;4816536;29;20046;-86
2021/10/17 09:48:45;;;;;;;13.63;6.80;;;10.90;92.50;;;;;;4808231;29;20069;-87
2021/10/17 09:51:16;;;;;;;15.68;7.00;;;10.90;92.60;;;;;;4810079;29;20064;-88
2021/10/17 09:53:46;;;;;;;13.77;6.75;;;10.90;92.50;;;;;;4804933;29;20045;-85
2021/10/17 09:56:31;;;;;;;17.73;6.70;;;10.90;92.50;;;;;;4793975;29;20054;-86
2021/10/17 09:59:03;;;;;;;13.05;6.47;;;11.00;92.40;;;;;;4800599;29;20062;-86
2021/10/17 10:01:30;;;;;;;16.27;5.90;;;11.00;92.60;;;;;;4804337;29;20054;-85
2021/10/17 10:03:57;;;;;;;12.48;6.78;;;11.00;92.40;;;;;;4805373;29;20050;-86
2021/10/17 10:06:25;;;;;;;16.77;7.00;;;11.00;92.40;;;;;;4795021;29;20050;-84
2021/10/17 10:08:55;;;;;;;14.70;6.43;;;11.10;92.30;;;;;;4794811;29;20042;-84
2021/10/17 10:11:23;;;;;;;17.40;6.57;;;11.10;92.30;;;;;;4820666;29;20473;-84
2021/10/17 10:13:51;;;;;;;18.60;6.75;;;11.10;92.20;;;;;;4805065;29;20062;-88
2021/10/17 10:16:22;;;;;;;18.25;6.85;;;11.10;92.10;;;;;;4795834;29;20050;-89
2021/10/17 10:18:54;;;;;;;18.83;6.32;;;11.10;92.10;;;;;;4794525;29;20078;-89
2021/10/17 10:21:20;;;;;;;16.95;6.10;;;11.20;92.00;;;;;;4796835;29;20081;-88
2021/10/17 10:23:49;;;;;;;17.83;6.47;;;11.20;92.30;;;;;;4801845;29;20110;-88
2021/10/17 10:26:16;;;;;;;17.83;6.55;;;11.20;91.80;;;;;;4803893;29;20506;-88
2021/10/17 10:28:42;;;;;;;18.30;7.97;;;11.20;91.80;;;;;;4806477;29;20057;-88
2021/10/17 10:31:34;;;;;;;15.10;6.85;;;11.20;91.70;;;;;;4810647;29;20057;-86
2021/10/17 10:33:59;;;;;;;17.33;6.72;;;11.30;91.70;;;;;;4826115;29;20141;-91
2021/10/17 10:36:47;;;;;;;15.13;7.00;;;11.30;91.70;;;;;;4810865;29;20620;-88
2021/10/17 10:39:16;;;;;;;13.07;6.50;;;11.30;91.60;;;;;;4812641;29;20042;-88
2021/10/17 10:41:52;;;;;;;13.35;6.28;;;11.30;91.70;;;;;;4801362;29;20058;-88
2021/10/17 10:44:19;;;;;;;14.32;6.35;;;11.30;91.60;;;;;;4806719;29;20079;-87
2021/10/17 10:46:47;;;;;;;16.52;6.50;;;11.40;91.70;;;;;;4804312;29;20042;-87
2021/10/17 10:49:52;;;;;;;16.23;6.60;;;11.40;91.70;;;;;;4801262;29;20071;-88
2021/10/17 10:52:23;;;;;;;16.08;6.82;;;11.40;91.40;;;;;;4800665;29;20051;-92
2021/10/17 10:54:53;;;;;;;17.40;6.85;;;11.50;91.70;;;;;;4803816;29;20054;-90
2021/10/17 10:57:24;;;;;;;14.77;6.20;;;11.50;91.70;;;;;;4793971;29;20063;-89
2021/10/17 11:00:02;;;;;;;14.45;6.65;;;11.50;91.60;;;;;;4800999;29;20133;-88
2021/10/17 11:02:28;;;;;;;16.58;6.63;;;11.50;91.50;;;;;;4792937;29;20046;-88
2021/10/17 11:04:54;;;;;;;14.18;6.22;;;11.60;91.70;;;;;;4792207;29;20412;-88
2021/10/17 11:07:27;;;;;;;15.05;6.55;;;11.60;91.40;;;;;;4798442;29;20058;-88
2021/10/17 11:09:54;;;;;;;15.77;5.93;;;11.70;91.30;;;;;;4797853;29;20051;-88
2021/10/17 11:12:46;;;;;;;13.88;5.90;;;11.70;91.10;;;;;;4793089;29;20083;-88
2021/10/17 11:15:14;;;;;;;16.05;6.32;;;11.70;90.90;;;;;;4822722;29;20046;-88
2021/10/17 11:17:57;;;;;;;16.02;6.22;;;11.70;91.00;;;;;;4791859;29;20057;-88
2021/10/17 11:20:25;;;;;;;11.10;5.60;;;11.80;91.00;;;;;;4820471;29;20050;-90
2021/10/17 11:22:54;;;;;;;13.50;5.82;;;11.80;91.10;;;;;;4801683;29;20058;-89
2021/10/17 11:25:20;;;;;;;14.38;5.82;;;11.80;91.00;;;;;;4792331;29;20047;-89
2021/10/17 11:27:48;;;;;;;12.77;5.70;;;11.90;91.00;;;;;;4798949;29;20069;-88
2021/10/17 11:30:34;;;;;;;15.68;5.88;;;11.90;90.90;;;;;;4810367;29;20491;-90
2021/10/17 11:33:04;;;;;;;20.05;6.15;;;11.90;90.90;;;;;;4809486;29;20043;-89
2021/10/17 11:35:34;;;;;;;11.55;5.90;;;12.00;91.00;;;;;;4805554;29;20053;-86
2021/10/17 11:38:06;;;;;;;16.05;6.60;;;12.00;90.80;;;;;;4800971;29;20042;-88
2021/10/17 11:40:35;;;;;;;13.35;6.28;;;12.00;90.70;;;;;;4791985;29;20046;-86
2021/10/17 12:43:49;;;;;;;;;;;;;;;;;;;;;
2021/10/17 12:55:30;;;;;;;10.60;3.95;;;12.70;90.30;;;;;;4616536;30;20059;-89
2021/10/17 12:58:13;;;;;;;14.35;4.55;;;12.80;90.20;;;;;;4617204;30;20100;-90
2021/10/17 13:01:24;;;;;;;11.90;4.45;;;12.90;89.90;;;;;;4596727;31;20630;-86
2021/10/17 13:04:36;;;;;;;11.38;4.40;;;12.90;89.70;;;;;;4599222;30;20147;-88
2021/10/17 13:10:43;;;;;;;32.70;14.52;;;13.00;88.60;;;;;;4679063;30;20137;-85
2021/10/17 13:13:14;;;;;;;13.80;4.75;;;13.00;88.70;;;;;;4723538;30;20052;-88
2021/10/17 13:15:40;;;;;;;10.77;4.10;;;13.00;88.00;;;;;;4722160;30;20057;-88
2021/10/17 13:18:06;;;;;;;10.23;3.65;;;13.00;87.90;;;;;;4719042;30;20599;-89
2021/10/17 13:20:38;;;;;;;9.85;4.13;;;13.10;87.60;;;;;;4714722;30;20136;-87
2021/10/17 13:23:05;;;;;;;10.32;3.80;;;13.10;88.10;;;;;;4775843;29;20066;-88
2021/10/17 13:25:33;;;;;;;11.05;4.25;;;13.20;88.20;;;;;;4795726;29;20106;-88
2021/10/17 13:28:00;;;;;;;9.93;4.57;;;13.10;87.90;;;;;;4803072;29;20497;-87
2021/10/17 13:30:27;;;;;;;10.38;3.95;;;13.20;88.10;;;;;;4812263;29;20098;-88
2021/10/17 13:32:53;;;;;;;12.20;3.90;;;13.20;88.30;;;;;;4811391;29;20137;-87
2021/10/17 13:35:19;;;;;;;11.63;3.90;;;13.30;88.20;;;;;;4824771;29;20050;-88
2021/10/17 13:37:46;;;;;;;10.00;4.10;;;13.20;88.30;;;;;;4812662;29;20033;-87
2021/10/17 13:40:13;;;;;;;11.57;4.70;;;13.30;88.50;;;;;;4824705;29;20565;-88
2021/10/17 13:42:40;;;;;;;15.60;4.70;;;13.30;89.20;;;;;;4824461;29;20046;-87
2021/10/17 13:45:08;;;;;;;17.63;4.82;;;13.30;88.40;;;;;;4824445;29;20098;-87
2021/10/17 13:47:34;;;;;;;12.63;5.07;;;13.30;88.40;;;;;;4827503;29;20050;-88
2021/10/17 13:50:00;;;;;;;12.20;5.70;;;13.30;88.20;;;;;;4814296;29;20142;-88
2021/10/17 13:52:25;;;;;;;14.35;4.88;;;13.30;88.10;;;;;;4809415;29;20114;-88
2021/10/17 13:54:51;;;;;;;12.73;4.38;;;13.30;88.20;;;;;;4814460;29;20130;-88